Time;durP1;ratioP1;P1;durP2;ratioP2;P2;SDS_P1;SDS_P2;PMS_P1;PMS_P2;Temp;Humidity;BMP_temperature;BMP_pressure;BME280_temperature;BME280_humidity;BME280_pressure;Samples;Min_cycle;Max_cycle;Signal;HPM_P1;HPM_P2
2023/07/30 00:01:05;;;;;;;4.18;3.03;;;;;;;;;;4933263;29;20036;-78
2023/07/30 00:03:30;;;;;;;3.08;2.75;;;;;;;;;;4933083;29;20058;-79
2023/07/30 00:05:56;;;;;;;7.18;5.25;;;;;;;;;;4948710;28;20396;-78
2023/07/30 00:08:22;;;;;;;6.97;2.97;;;;;;;;;;4933849;29;20044;-78
2023/07/30 00:10:47;;;;;;;2.15;2.00;;;;;;;;;;4933545;29;20047;-79
2023/07/30 00:13:12;;;;;;;4.93;4.10;;;;;;;;;;4932784;29;20039;-79
2023/07/30 00:15:38;;;;;;;2.72;2.53;;;;;;;;;;4934415;29;20042;-79
2023/07/30 00:18:03;;;;;;;5.45;3.33;;;;;;;;;;4934278;29;20215;-79
2023/07/30 00:20:28;;;;;;;5.85;2.78;;;;;;;;;;4935227;29;20032;-80
2023/07/30 00:22:53;;;;;;;7.13;3.75;;;;;;;;;;4934365;29;20028;-80
2023/07/30 00:25:19;;;;;;;4.10;2.97;;;;;;;;;;4933831;29;20499;-80
2023/07/30 00:27:44;;;;;;;2.50;2.28;;;;;;;;;;4933800;29;20063;-79
2023/07/30 00:30:10;;;;;;;6.93;4.18;;;;;;;;;;4932762;29;20039;-80
2023/07/30 00:32:35;;;;;;;8.13;5.38;;;;;;;;;;4949065;29;20031;-80
2023/07/30 00:35:00;;;;;;;5.47;4.43;;;;;;;;;;4933523;28;20407;-80
2023/07/30 00:37:26;;;;;;;7.75;5.60;;;;;;;;;;4933835;29;20062;-79
2023/07/30 00:39:51;;;;;;;5.07;2.05;;;;;;;;;;4933724;28;20063;-80
2023/07/30 00:42:16;;;;;;;1.92;1.83;;;;;;;;;;4948434;28;20019;-80
2023/07/30 00:44:42;;;;;;;5.80;1.95;;;;;;;;;;4933059;29;20024;-79
2023/07/30 00:47:07;;;;;;;5.68;2.55;;;;;;;;;;4947114;28;20047;-80
2023/07/30 00:49:33;;;;;;;3.20;1.80;;;;;;;;;;4947552;28;20618;-80
2023/07/30 00:51:58;;;;;;;24.25;11.55;;;;;;;;;;4932078;29;20054;-79
2023/07/30 00:54:25;;;;;;;1.80;1.70;;;;;;;;;;4933708;29;20066;-80
2023/07/30 00:56:52;;;;;;;4.57;1.98;;;;;;;;;;4934068;29;20036;-79
2023/07/30 00:59:18;;;;;;;1.98;1.88;;;;;;;;;;4933691;29;20484;-79
2023/07/30 01:01:46;;;;;;;2.25;2.05;;;;;;;;;;4933876;28;20512;-79
2023/07/30 01:04:13;;;;;;;3.10;1.90;;;;;;;;;;4937359;29;20044;-79
2023/07/30 01:06:39;;;;;;;2.33;1.90;;;;;;;;;;4947720;28;20039;-80
2023/07/30 01:09:04;;;;;;;2.20;2.00;;;;;;;;;;4937935;29;20066;-80
2023/07/30 01:11:29;;;;;;;1.85;1.75;;;;;;;;;;4933956;29;20024;-80
2023/07/30 01:13:56;;;;;;;2.83;1.92;;;;;;;;;;4948541;28;20054;-79
2023/07/30 01:16:22;;;;;;;1.90;1.80;;;;;;;;;;4947532;29;20101;-79
2023/07/30 01:18:47;;;;;;;2.47;2.28;;;;;;;;;;4934467;28;20190;-79
2023/07/30 01:21:12;;;;;;;2.25;2.08;;;;;;;;;;4937668;28;20098;-79
2023/07/30 01:23:38;;;;;;;2.45;2.08;;;;;;;;;;4935372;29;20032;-79
2023/07/30 01:26:14;;;;;;;2.22;2.03;;;;;;;;;;4934976;28;20427;-79
2023/07/30 01:28:45;;;;;;;2.72;2.22;;;;;;;;;;4947336;28;20201;-80
2023/07/30 01:31:15;;;;;;;3.42;2.60;;;;;;;;;;4951226;28;20051;-79
2023/07/30 01:33:41;;;;;;;1.77;1.65;;;;;;;;;;4945138;28;20047;-79
2023/07/30 01:36:10;;;;;;;2.92;2.53;;;;;;;;;;4934732;28;20040;-79
2023/07/30 01:38:37;;;;;;;3.67;2.78;;;;;;;;;;4935426;28;20076;-79
2023/07/30 01:41:03;;;;;;;3.08;2.22;;;;;;;;;;4933818;28;20044;-80
2023/07/30 01:43:28;;;;;;;5.82;2.13;;;;;;;;;;4938415;28;20035;-79
2023/07/30 01:45:53;;;;;;;4.68;2.92;;;;;;;;;;4939742;28;20058;-79
2023/07/30 01:48:18;;;;;;;1.80;1.70;;;;;;;;;;4934419;28;20020;-80
2023/07/30 01:50:46;;;;;;;4.88;2.25;;;;;;;;;;4929584;29;20036;-79
2023/07/30 01:53:12;;;;;;;2.35;2.03;;;;;;;;;;4932124;28;20539;-79
2023/07/30 01:55:39;;;;;;;2.47;1.67;;;;;;;;;;4932012;29;20035;-79
2023/07/30 01:58:04;;;;;;;2.70;1.88;;;;;;;;;;4934910;29;20036;-79
2023/07/30 02:00:30;;;;;;;3.10;1.88;;;;;;;;;;4933629;28;20051;-79
2023/07/30 02:02:55;;;;;;;2.15;1.60;;;;;;;;;;4937659;29;20027;-78
2023/07/30 02:05:20;;;;;;;2.00;1.48;;;;;;;;;;4951419;28;20035;-79
2023/07/30 02:07:45;;;;;;;2.42;1.58;;;;;;;;;;4951913;28;20131;-78
2023/07/30 02:10:11;;;;;;;2.15;1.80;;;;;;;;;;4949855;28;20058;-79
2023/07/30 02:12:36;;;;;;;3.78;1.90;;;;;;;;;;4935999;29;20039;-78
2023/07/30 02:15:02;;;;;;;1.83;1.73;;;;;;;;;;4936723;29;20031;-78
2023/07/30 02:17:27;;;;;;;1.80;1.70;;;;;;;;;;4934310;28;20035;-79
2023/07/30 02:19:52;;;;;;;3.28;1.95;;;;;;;;;;4951782;28;20039;-79
2023/07/30 02:22:17;;;;;;;1.80;1.70;;;;;;;;;;4950818;28;20518;-79
2023/07/30 02:24:43;;;;;;;1.65;1.52;;;;;;;;;;4934689;29;20051;-79
2023/07/30 02:27:08;;;;;;;2.08;1.60;;;;;;;;;;4934386;28;20178;-78
2023/07/30 02:29:33;;;;;;;2.17;1.90;;;;;;;;;;4935410;28;20019;-78
2023/07/30 02:31:59;;;;;;;4.50;1.58;;;;;;;;;;4933876;28;20070;-79
2023/07/30 02:34:25;;;;;;;2.22;2.00;;;;;;;;;;4951527;28;20038;-78
2023/07/30 02:36:50;;;;;;;3.60;1.60;;;;;;;;;;4939191;28;20260;-77
2023/07/30 02:39:15;;;;;;;2.60;1.60;;;;;;;;;;4936023;28;20032;-78
2023/07/30 02:41:40;;;;;;;2.33;1.75;;;;;;;;;;4936369;28;20027;-78
2023/07/30 02:44:06;;;;;;;1.88;1.60;;;;;;;;;;4933933;29;20139;-79
2023/07/30 02:46:31;;;;;;;1.75;1.40;;;;;;;;;;4952223;28;20565;-79
2023/07/30 02:48:56;;;;;;;1.50;1.40;;;;;;;;;;4937556;28;20040;-79
2023/07/30 02:51:22;;;;;;;3.08;1.80;;;;;;;;;;4939252;28;20094;-79
2023/07/30 02:53:51;;;;;;;1.73;1.63;;;;;;;;;;4935413;29;20107;-79
2023/07/30 02:56:17;;;;;;;2.17;1.75;;;;;;;;;;4939039;28;20182;-80
2023/07/30 02:58:42;;;;;;;2.45;1.80;;;;;;;;;;4952566;28;20111;-78
2023/07/30 03:01:08;;;;;;;1.73;1.63;;;;;;;;;;4935715;28;20367;-78
2023/07/30 03:03:33;;;;;;;1.98;1.88;;;;;;;;;;4939081;28;20039;-79
2023/07/30 03:05:59;;;;;;;2.15;1.40;;;;;;;;;;4936643;29;20023;-78
2023/07/30 03:08:24;;;;;;;6.15;1.98;;;;;;;;;;4936569;28;20035;-79
2023/07/30 03:10:49;;;;;;;2.00;1.65;;;;;;;;;;4936940;28;20051;-78
2023/07/30 03:13:14;;;;;;;1.90;1.80;;;;;;;;;;5008567;23;20969;-83
2023/07/30 03:15:40;;;;;;;2.80;2.00;;;;;;;;;;5015551;28;20045;-82
2023/07/30 03:18:05;;;;;;;2.00;1.80;;;;;;;;;;5028192;28;20026;-84
2023/07/30 03:20:30;;;;;;;2.25;1.75;;;;;;;;;;5018201;28;20038;-82
2023/07/30 03:22:56;;;;;;;2.42;1.92;;;;;;;;;;5017244;28;20081;-84
2023/07/30 03:25:21;;;;;;;2.25;2.05;;;;;;;;;;5019124;28;20038;-80
2023/07/30 03:27:46;;;;;;;2.95;2.00;;;;;;;;;;5018681;28;20568;-83
2023/07/30 03:30:11;;;;;;;4.93;1.85;;;;;;;;;;5018637;28;20021;-83
2023/07/30 03:32:37;;;;;;;1.83;1.70;;;;;;;;;;5018199;28;20025;-82
2023/07/30 03:35:02;;;;;;;2.58;1.83;;;;;;;;;;5018425;28;20069;-81
2023/07/30 03:37:27;;;;;;;1.90;1.75;;;;;;;;;;5020660;28;20030;-82
2023/07/30 03:39:53;;;;;;;3.03;2.15;;;;;;;;;;5018867;28;20029;-80
2023/07/30 03:42:19;;;;;;;2.90;1.73;;;;;;;;;;5019588;28;20018;-82
2023/07/30 03:44:44;;;;;;;1.83;1.73;;;;;;;;;;5034686;28;20030;-82
2023/07/30 03:47:09;;;;;;;1.98;1.80;;;;;;;;;;5016695;28;20126;-81
2023/07/30 03:49:34;;;;;;;2.63;1.75;;;;;;;;;;5017195;28;20405;-82
2023/07/30 03:52:00;;;;;;;2.08;1.77;;;;;;;;;;5017651;28;20030;-81
2023/07/30 03:54:25;;;;;;;8.88;1.80;;;;;;;;;;5016162;28;20061;-82
2023/07/30 03:56:50;;;;;;;2.28;2.08;;;;;;;;;;5019667;28;20029;-83
2023/07/30 03:59:16;;;;;;;2.45;1.90;;;;;;;;;;5016759;28;20038;-83
2023/07/30 04:01:41;;;;;;;1.88;1.63;;;;;;;;;;5016223;28;20559;-82
2023/07/30 04:04:06;;;;;;;2.08;1.92;;;;;;;;;;5017519;28;20026;-81
2023/07/30 04:06:31;;;;;;;2.08;1.88;;;;;;;;;;5015622;28;20156;-84
2023/07/30 04:08:57;;;;;;;2.25;1.90;;;;;;;;;;5035110;28;20028;-83
2023/07/30 04:11:22;;;;;;;3.13;2.10;;;;;;;;;;5015592;28;20034;-81
2023/07/30 04:13:47;;;;;;;2.58;1.63;;;;;;;;;;5019009;28;20034;-83
2023/07/30 04:16:13;;;;;;;1.83;1.73;;;;;;;;;;5014166;28;20184;-83
2023/07/30 04:18:38;;;;;;;3.55;1.80;;;;;;;;;;5019304;28;20049;-82
2023/07/30 04:21:03;;;;;;;2.10;1.90;;;;;;;;;;5032789;28;20085;-83
2023/07/30 04:23:28;;;;;;;1.98;1.73;;;;;;;;;;5015856;28;20068;-83
2023/07/30 04:25:54;;;;;;;2.13;1.92;;;;;;;;;;5016512;28;20489;-83
2023/07/30 04:28:19;;;;;;;2.72;1.73;;;;;;;;;;5017290;28;20132;-81
2023/07/30 04:30:46;;;;;;;3.38;2.00;;;;;;;;;;5016094;28;20030;-81
2023/07/30 04:33:12;;;;;;;2.00;1.80;;;;;;;;;;5016449;28;20444;-82
2023/07/30 04:35:37;;;;;;;3.08;1.60;;;;;;;;;;5016597;28;20030;-82
2023/07/30 04:38:02;;;;;;;2.47;1.70;;;;;;;;;;5017088;28;20056;-83
2023/07/30 04:40:29;;;;;;;1.90;1.80;;;;;;;;;;5017302;28;20548;-83
2023/07/30 04:42:54;;;;;;;1.73;1.60;;;;;;;;;;5017440;28;20026;-83
2023/07/30 04:45:19;;;;;;;1.85;1.75;;;;;;;;;;5018185;28;20026;-82
2023/07/30 04:47:45;;;;;;;1.60;1.50;;;;;;;;;;5032837;28;20022;-82
2023/07/30 04:50:10;;;;;;;1.70;1.60;;;;;;;;;;5016938;28;20281;-82
2023/07/30 04:52:35;;;;;;;1.80;1.70;;;;;;;;;;5033888;28;20162;-82
2023/07/30 04:55:00;;;;;;;1.58;1.48;;;;;;;;;;5017267;28;20064;-82
2023/07/30 04:57:26;;;;;;;1.67;1.58;;;;;;;;;;5016357;28;20038;-81
2023/07/30 04:59:52;;;;;;;2.67;1.60;;;;;;;;;;5016713;28;20051;-83
2023/07/30 05:02:17;;;;;;;1.73;1.63;;;;;;;;;;5015378;28;20150;-82
2023/07/30 05:04:42;;;;;;;1.70;1.60;;;;;;;;;;5016608;28;20551;-83
2023/07/30 05:07:08;;;;;;;2.53;1.60;;;;;;;;;;5017528;28;20084;-82
2023/07/30 05:09:33;;;;;;;1.90;1.55;;;;;;;;;;5017957;28;20432;-82
2023/07/30 05:11:58;;;;;;;1.90;1.75;;;;;;;;;;5016929;28;20085;-82
2023/07/30 05:14:24;;;;;;;2.33;1.80;;;;;;;;;;5016046;28;20047;-83
2023/07/30 05:16:49;;;;;;;2.00;1.80;;;;;;;;;;5017817;28;20045;-82
2023/07/30 05:19:16;;;;;;;2.28;1.80;;;;;;;;;;5017062;28;20470;-83
2023/07/30 05:21:41;;;;;;;1.60;1.50;;;;;;;;;;5017271;28;20038;-83
2023/07/30 05:24:07;;;;;;;1.67;1.50;;;;;;;;;;5019641;28;20034;-83
2023/07/30 05:26:32;;;;;;;2.60;1.70;;;;;;;;;;5022489;28;20601;-83
2023/07/30 05:28:58;;;;;;;1.90;1.80;;;;;;;;;;5018998;28;20062;-82
2023/07/30 05:31:23;;;;;;;1.40;1.30;;;;;;;;;;5016658;28;20064;-81
2023/07/30 05:33:48;;;;;;;2.25;1.60;;;;;;;;;;5018143;28;20048;-83
2023/07/30 05:36:13;;;;;;;1.80;1.70;;;;;;;;;;5021044;28;20504;-83
2023/07/30 05:38:39;;;;;;;1.67;1.58;;;;;;;;;;5020784;28;20018;-82
2023/07/30 05:41:04;;;;;;;2.75;2.03;;;;;;;;;;5020951;28;20030;-82
2023/07/30 05:43:29;;;;;;;2.30;1.40;;;;;;;;;;5019059;28;20549;-82
2023/07/30 05:45:55;;;;;;;2.22;1.75;;;;;;;;;;5021428;28;20046;-82
2023/07/30 05:48:20;;;;;;;3.08;1.70;;;;;;;;;;5020007;28;20136;-82
2023/07/30 05:50:45;;;;;;;1.73;1.63;;;;;;;;;;5020254;28;20034;-82
2023/07/30 05:53:10;;;;;;;4.10;1.63;;;;;;;;;;5018442;28;20037;-81
2023/07/30 05:55:36;;;;;;;1.88;1.77;;;;;;;;;;5032326;28;20030;-81
2023/07/30 05:58:01;;;;;;;1.60;1.40;;;;;;;;;;5021873;28;20034;-81
2023/07/30 06:00:26;;;;;;;1.80;1.70;;;;;;;;;;5026071;28;20049;-81
2023/07/30 06:02:52;;;;;;;1.73;1.63;;;;;;;;;;5024011;28;20110;-82
2023/07/30 06:05:17;;;;;;;2.22;1.80;;;;;;;;;;5025446;28;20105;-82
2023/07/30 06:07:42;;;;;;;2.33;2.00;;;;;;;;;;5023317;28;20045;-82
2023/07/30 06:10:08;;;;;;;2.78;1.70;;;;;;;;;;5030297;28;20033;-82
2023/07/30 06:12:33;;;;;;;3.13;1.80;;;;;;;;;;5022750;28;20045;-81
2023/07/30 06:14:58;;;;;;;1.40;1.30;;;;;;;;;;5037811;28;20024;-81
2023/07/30 06:17:24;;;;;;;2.08;1.60;;;;;;;;;;5019046;28;20109;-80
2023/07/30 06:19:49;;;;;;;2.33;1.75;;;;;;;;;;5018512;28;20502;-81
2023/07/30 06:22:14;;;;;;;1.50;1.40;;;;;;;;;;5019254;28;20030;-82
2023/07/30 06:24:40;;;;;;;2.08;1.80;;;;;;;;;;5020027;28;20064;-82
2023/07/30 06:27:05;;;;;;;2.30;1.77;;;;;;;;;;5037553;28;20108;-80
2023/07/30 06:29:31;;;;;;;2.47;1.58;;;;;;;;;;5019247;28;20053;-81
2023/07/30 06:31:56;;;;;;;2.85;1.55;;;;;;;;;;5022845;28;20041;-81
2023/07/30 06:34:21;;;;;;;1.70;1.60;;;;;;;;;;5020157;28;20030;-82
2023/07/30 06:36:46;;;;;;;1.80;1.65;;;;;;;;;;5018127;28;20041;-80
2023/07/30 06:39:12;;;;;;;2.28;1.60;;;;;;;;;;5017705;28;20037;-81
2023/07/30 06:41:37;;;;;;;2.63;1.63;;;;;;;;;;5017460;28;20057;-81
2023/07/30 06:44:03;;;;;;;3.50;1.42;;;;;;;;;;5016299;28;20041;-82
2023/07/30 06:46:28;;;;;;;1.52;1.42;;;;;;;;;;5015739;28;20041;-80
2023/07/30 06:48:53;;;;;;;1.50;1.40;;;;;;;;;;5016458;28;20033;-82
2023/07/30 06:51:20;;;;;;;1.60;1.50;;;;;;;;;;5021128;28;20428;-82
2023/07/30 06:53:45;;;;;;;2.50;1.38;;;;;;;;;;5020618;28;20037;-83
2023/07/30 06:56:10;;;;;;;1.38;1.35;;;;;;;;;;5020812;28;20429;-83
2023/07/30 06:58:36;;;;;;;1.75;1.50;;;;;;;;;;5018355;28;20065;-82
2023/07/30 07:01:01;;;;;;;1.50;1.40;;;;;;;;;;5020423;28;20034;-81
2023/07/30 07:03:26;;;;;;;1.70;1.60;;;;;;;;;;5022358;28;20037;-81
2023/07/30 07:05:55;;;;;;;2.08;1.75;;;;;;;;;;5019643;28;20030;-81
2023/07/30 07:08:21;;;;;;;1.60;1.50;;;;;;;;;;5018301;28;20069;-81
2023/07/30 07:10:46;;;;;;;1.35;1.25;;;;;;;;;;5019430;28;20261;-81
2023/07/30 07:13:15;;;;;;;1.48;1.38;;;;;;;;;;5018997;28;20064;-79
2023/07/30 07:15:44;;;;;;;1.60;1.50;;;;;;;;;;5021493;28;20048;-83
2023/07/30 07:18:10;;;;;;;1.50;1.40;;;;;;;;;;5022079;28;20037;-81
2023/07/30 07:20:36;;;;;;;1.55;1.45;;;;;;;;;;5034473;28;20034;-82
2023/07/30 07:23:01;;;;;;;3.22;1.40;;;;;;;;;;5019321;28;20282;-81
2023/07/30 07:25:27;;;;;;;1.58;1.48;;;;;;;;;;5034074;28;20136;-80
2023/07/30 07:27:52;;;;;;;1.73;1.25;;;;;;;;;;5017686;28;20053;-83
2023/07/30 07:30:17;;;;;;;1.73;1.48;;;;;;;;;;5018152;28;20053;-83
2023/07/30 07:32:43;;;;;;;1.52;1.38;;;;;;;;;;5014891;28;20053;-82
2023/07/30 07:35:08;;;;;;;1.70;1.60;;;;;;;;;;5018562;28;20587;-82
2023/07/30 07:37:34;;;;;;;1.50;1.40;;;;;;;;;;5034066;28;20064;-83
2023/07/30 07:39:59;;;;;;;4.65;1.55;;;;;;;;;;5017268;28;20941;-82
2023/07/30 07:42:24;;;;;;;1.88;1.30;;;;;;;;;;5015406;28;20049;-83
2023/07/30 07:44:50;;;;;;;1.65;1.50;;;;;;;;;;5016382;28;20060;-82
2023/07/30 07:47:15;;;;;;;1.58;1.48;;;;;;;;;;5033195;28;20026;-83
2023/07/30 07:49:41;;;;;;;1.40;1.30;;;;;;;;;;5016338;28;20109;-82
2023/07/30 07:52:06;;;;;;;1.40;1.30;;;;;;;;;;5015766;28;20061;-82
2023/07/30 07:54:32;;;;;;;3.33;1.70;;;;;;;;;;5017800;28;20118;-81
2023/07/30 07:56:57;;;;;;;2.00;1.20;;;;;;;;;;5016273;28;20038;-83
2023/07/30 07:59:23;;;;;;;1.42;1.30;;;;;;;;;;5017229;28;20137;-82
2023/07/30 08:01:49;;;;;;;1.40;1.30;;;;;;;;;;5015746;28;20034;-81
2023/07/30 08:04:14;;;;;;;2.15;1.40;;;;;;;;;;5016058;28;20038;-83
2023/07/30 08:06:39;;;;;;;2.15;1.25;;;;;;;;;;5014550;28;20132;-81
2023/07/30 08:09:05;;;;;;;1.50;1.40;;;;;;;;;;5015273;28;20025;-80
2023/07/30 08:11:30;;;;;;;1.15;1.10;;;;;;;;;;5016661;28;20018;-79
2023/07/30 08:13:56;;;;;;;1.75;1.20;;;;;;;;;;5016468;28;20036;-82
2023/07/30 08:16:22;;;;;;;1.10;1.10;;;;;;;;;;5019465;28;20033;-83
2023/07/30 08:18:47;;;;;;;1.20;1.20;;;;;;;;;;5020163;28;20075;-83
2023/07/30 08:21:13;;;;;;;1.90;1.15;;;;;;;;;;5016252;28;20497;-83
2023/07/30 08:23:38;;;;;;;1.40;1.30;;;;;;;;;;5017607;28;20060;-81
2023/07/30 08:26:03;;;;;;;1.42;1.33;;;;;;;;;;5016245;28;20034;-84
2023/07/30 08:28:29;;;;;;;1.50;1.33;;;;;;;;;;5031401;28;20506;-83
2023/07/30 08:31:01;;;;;;;2.13;1.27;;;;;;;;;;5018170;28;20030;-83
2023/07/30 08:33:26;;;;;;;1.23;1.17;;;;;;;;;;5017731;28;20498;-80
2023/07/30 08:35:55;;;;;;;1.15;1.10;;;;;;;;;;5016883;28;20036;-82
2023/07/30 08:38:20;;;;;;;3.28;1.42;;;;;;;;;;5017217;28;20061;-82
2023/07/30 08:40:46;;;;;;;1.30;1.20;;;;;;;;;;5034093;28;20104;-82
2023/07/30 08:43:20;;;;;;;1.33;1.13;;;;;;;;;;5024398;28;20029;-81
2023/07/30 08:45:45;;;;;;;2.40;1.40;;;;;;;;;;5026102;28;20052;-82
2023/07/30 08:48:11;;;;;;;1.50;1.40;;;;;;;;;;5010927;28;20029;-81
2023/07/30 08:50:37;;;;;;;1.40;1.30;;;;;;;;;;5011302;28;20042;-82
2023/07/30 08:53:03;;;;;;;1.20;1.20;;;;;;;;;;5009208;28;20119;-80
2023/07/30 08:55:30;;;;;;;1.60;1.50;;;;;;;;;;5010732;28;20030;-81
2023/07/30 08:57:58;;;;;;;1.25;1.20;;;;;;;;;;5011890;28;20041;-78
2023/07/30 09:00:25;;;;;;;1.05;1.05;;;;;;;;;;5016629;28;20045;-81
2023/07/30 09:02:54;;;;;;;1.33;1.20;;;;;;;;;;5031863;28;20018;-82
2023/07/30 09:05:20;;;;;;;1.23;1.10;;;;;;;;;;5018011;28;20037;-79
2023/07/30 09:07:46;;;;;;;2.35;1.40;;;;;;;;;;5018592;28;20091;-78
2023/07/30 09:10:13;;;;;;;1.50;1.20;;;;;;;;;;5019373;28;20382;-80
2023/07/30 09:12:38;;;;;;;1.42;1.33;;;;;;;;;;5029040;23;20094;-79
2023/07/30 09:15:05;;;;;;;1.25;1.17;;;;;;;;;;4954049;28;20025;-79
2023/07/30 09:17:30;;;;;;;1.45;1.35;;;;;;;;;;4972455;28;20429;-79
2023/07/30 09:19:59;;;;;;;1.35;1.25;;;;;;;;;;4970157;28;20217;-79
2023/07/30 09:22:28;;;;;;;1.05;1.05;;;;;;;;;;4959314;28;20033;-79
2023/07/30 09:24:54;;;;;;;1.60;1.50;;;;;;;;;;4943904;28;20048;-79
2023/07/30 09:27:27;;;;;;;1.33;1.23;;;;;;;;;;4939574;28;20162;-79
2023/07/30 09:29:57;;;;;;;1.50;1.40;;;;;;;;;;4951843;28;20109;-79
2023/07/30 09:32:31;;;;;;;1.48;1.27;;;;;;;;;;4957781;28;20418;-79
2023/07/30 09:35:08;;;;;;;1.30;1.20;;;;;;;;;;4937115;28;20080;-78
2023/07/30 09:37:41;;;;;;;1.95;1.40;;;;;;;;;;4953328;28;20131;-78
2023/07/30 09:40:12;;;;;;;1.45;1.35;;;;;;;;;;4946441;28;20171;-79
2023/07/30 09:42:39;;;;;;;4.10;1.40;;;;;;;;;;4935269;28;20035;-79
2023/07/30 09:45:07;;;;;;;1.13;1.13;;;;;;;;;;4930440;28;20078;-79
2023/07/30 09:47:34;;;;;;;1.17;1.17;;;;;;;;;;4946917;28;20433;-79
2023/07/30 09:49:59;;;;;;;1.30;1.20;;;;;;;;;;4945665;28;20036;-79
2023/07/30 09:52:24;;;;;;;1.92;1.63;;;;;;;;;;4945823;28;20080;-79
2023/07/30 09:54:52;;;;;;;1.42;1.33;;;;;;;;;;4946883;28;20032;-79
2023/07/30 09:57:17;;;;;;;2.17;1.42;;;;;;;;;;4942347;28;20403;-79
2023/07/30 09:59:42;;;;;;;3.72;1.30;;;;;;;;;;4947367;28;20046;-78
2023/07/30 10:02:10;;;;;;;1.40;1.30;;;;;;;;;;4956175;28;20072;-79
2023/07/30 10:04:41;;;;;;;1.50;1.40;;;;;;;;;;4955497;28;20037;-79
2023/07/30 10:07:10;;;;;;;1.63;1.48;;;;;;;;;;4939897;28;20028;-79
2023/07/30 10:09:43;;;;;;;1.10;1.10;;;;;;;;;;4947852;28;20039;-79
2023/07/30 10:12:12;;;;;;;1.98;1.52;;;;;;;;;;4929981;28;20481;-79
2023/07/30 10:14:38;;;;;;;2.05;1.40;;;;;;;;;;4948989;28;20122;-79
2023/07/30 10:17:03;;;;;;;1.58;1.48;;;;;;;;;;4932082;28;20219;-79
2023/07/30 10:19:29;;;;;;;1.25;1.17;;;;;;;;;;4946648;28;20292;-79
2023/07/30 10:22:13;;;;;;;1.80;1.50;;;;;;;;;;4936856;28;20040;-79
2023/07/30 10:24:39;;;;;;;2.05;1.38;;;;;;;;;;4941671;28;20519;-79
2023/07/30 10:27:09;;;;;;;1.75;1.35;;;;;;;;;;4933753;28;20059;-78
2023/07/30 10:29:35;;;;;;;1.67;1.50;;;;;;;;;;4935758;28;20020;-79
2023/07/30 10:32:02;;;;;;;1.23;1.23;;;;;;;;;;4931630;28;20561;-79
2023/07/30 10:34:44;;;;;;;1.75;1.30;;;;;;;;;;4932021;28;20031;-79
2023/07/30 10:37:09;;;;;;;2.38;1.25;;;;;;;;;;4945072;28;20028;-79
2023/07/30 10:39:35;;;;;;;1.55;1.45;;;;;;;;;;4943131;28;20652;-80
2023/07/30 10:42:00;;;;;;;1.85;1.30;;;;;;;;;;4956039;28;20107;-78
2023/07/30 10:44:33;;;;;;;3.03;1.48;;;;;;;;;;4933768;28;20052;-78
2023/07/30 10:47:00;;;;;;;1.40;1.30;;;;;;;;;;4930967;28;20042;-78
2023/07/30 10:49:26;;;;;;;1.80;1.23;;;;;;;;;;4933944;28;20035;-78
2023/07/30 10:51:53;;;;;;;1.50;1.40;;;;;;;;;;4940537;28;20074;-77
2023/07/30 10:54:18;;;;;;;1.33;1.23;;;;;;;;;;4929553;28;20034;-78
2023/07/30 10:56:44;;;;;;;3.25;1.70;;;;;;;;;;4942037;28;20119;-78
2023/07/30 10:59:11;;;;;;;1.58;1.30;;;;;;;;;;4967658;28;20024;-78
2023/07/30 11:01:45;;;;;;;6.78;1.45;;;;;;;;;;4931110;28;20039;-78
2023/07/30 11:04:16;;;;;;;1.55;1.40;;;;;;;;;;4940304;28;20050;-78
2023/07/30 11:06:49;;;;;;;1.27;1.27;;;;;;;;;;4933027;28;20059;-78
2023/07/30 11:09:20;;;;;;;1.67;1.50;;;;;;;;;;4934329;28;20012;-80
2023/07/30 11:11:45;;;;;;;1.60;1.50;;;;;;;;;;4935106;28;20051;-78
2023/07/30 11:14:15;;;;;;;1.40;1.35;;;;;;;;;;4936563;28;20040;-79
2023/07/30 11:16:50;;;;;;;1.25;1.25;;;;;;;;;;4941893;28;20054;-79
2023/07/30 11:19:16;;;;;;;1.35;1.20;;;;;;;;;;4933742;28;20134;-78
2023/07/30 11:21:46;;;;;;;1.52;1.42;;;;;;;;;;4957709;28;20130;-78
2023/07/30 11:24:11;;;;;;;2.50;1.20;;;;;;;;;;4937955;28;20096;-77
2023/07/30 11:26:36;;;;;;;1.98;1.20;;;;;;;;;;4932503;28;20442;-78
2023/07/30 11:29:17;;;;;;;1.58;1.48;;;;;;;;;;4940632;28;20028;-78
2023/07/30 11:31:44;;;;;;;1.42;1.33;;;;;;;;;;4946554;28;20044;-80
2023/07/30 11:34:10;;;;;;;4.70;1.52;;;;;;;;;;4933419;28;20147;-78
2023/07/30 11:36:36;;;;;;;1.15;1.10;;;;;;;;;;4934790;28;20043;-78
2023/07/30 11:39:01;;;;;;;1.40;1.30;;;;;;;;;;4952642;28;20035;-79
2023/07/30 11:41:28;;;;;;;1.00;1.00;;;;;;;;;;4944555;28;20372;-79
2023/07/30 11:43:54;;;;;;;1.15;1.10;;;;;;;;;;4957786;28;20155;-79
2023/07/30 11:46:22;;;;;;;1.20;1.20;;;;;;;;;;4933633;28;20118;-79
2023/07/30 11:48:49;;;;;;;1.40;1.30;;;;;;;;;;4936031;28;20043;-79
2023/07/30 11:51:21;;;;;;;1.20;1.10;;;;;;;;;;4932334;28;20189;-79
2023/07/30 11:53:58;;;;;;;1.17;1.13;;;;;;;;;;4944673;28;20561;-79
2023/07/30 11:56:28;;;;;;;2.40;1.10;;;;;;;;;;4943843;28;20043;-79
2023/07/30 11:59:04;;;;;;;1.20;1.10;;;;;;;;;;4938297;28;20086;-79
2023/07/30 12:01:32;;;;;;;1.00;1.00;;;;;;;;;;4947600;28;20035;-79
2023/07/30 12:03:58;;;;;;;1.40;1.30;;;;;;;;;;4947779;28;20039;-79
2023/07/30 12:06:37;;;;;;;1.60;1.50;;;;;;;;;;4949926;28;20031;-79
2023/07/30 12:09:09;;;;;;;1.02;1.02;;;;;;;;;;4949490;28;20016;-79
2023/07/30 12:11:44;;;;;;;1.17;1.10;;;;;;;;;;4940525;28;20048;-79
2023/07/30 12:14:09;;;;;;;1.40;1.30;;;;;;;;;;4929697;28;20036;-78
2023/07/30 12:16:35;;;;;;;3.38;1.40;;;;;;;;;;4930740;28;20032;-78
2023/07/30 12:19:00;;;;;;;1.00;1.00;;;;;;;;;;4948447;28;20032;-78
2023/07/30 12:21:25;;;;;;;1.30;1.20;;;;;;;;;;4947198;28;20088;-79
2023/07/30 12:23:51;;;;;;;1.23;1.20;;;;;;;;;;4948672;28;20067;-79
2023/07/30 12:26:16;;;;;;;2.72;1.50;;;;;;;;;;4956339;28;20388;-79
2023/07/30 12:28:41;;;;;;;1.48;1.20;;;;;;;;;;4944644;28;20432;-79
2023/07/30 12:31:07;;;;;;;2.67;1.30;;;;;;;;;;4934205;28;20163;-79
2023/07/30 12:33:32;;;;;;;1.20;1.20;;;;;;;;;;4934535;28;20028;-79
2023/07/30 12:35:57;;;;;;;1.30;1.20;;;;;;;;;;4967464;28;20506;-79
2023/07/30 12:38:23;;;;;;;1.30;1.20;;;;;;;;;;4962750;28;20043;-79
2023/07/30 12:40:48;;;;;;;1.98;1.42;;;;;;;;;;5004729;28;20038;-79
2023/07/30 12:43:18;;;;;;;2.33;1.25;;;;;;;;;;5036689;28;20041;-82
2023/07/30 12:45:44;;;;;;;1.67;1.40;;;;;;;;;;4957076;28;20044;-81
2023/07/30 12:48:09;;;;;;;1.42;1.20;;;;;;;;;;4932984;28;20340;-78
2023/07/30 12:50:41;;;;;;;1.55;1.45;;;;;;;;;;4934627;28;20028;-79
2023/07/30 12:53:06;;;;;;;1.38;1.30;;;;;;;;;;4923750;28;20131;-79
2023/07/30 12:55:31;;;;;;;2.42;1.40;;;;;;;;;;4946956;28;20593;-79
2023/07/30 12:57:56;;;;;;;1.30;1.20;;;;;;;;;;4931873;28;20510;-79
2023/07/30 13:00:22;;;;;;;2.28;1.42;;;;;;;;;;4935148;28;20138;-78
2023/07/30 13:02:47;;;;;;;1.40;1.30;;;;;;;;;;4945919;28;20091;-78
2023/07/30 13:05:15;;;;;;;1.73;1.40;;;;;;;;;;4935853;28;20357;-78
2023/07/30 13:07:40;;;;;;;1.65;1.52;;;;;;;;;;4945816;28;20047;-78
2023/07/30 13:10:07;;;;;;;8.38;1.30;;;;;;;;;;4938887;28;20035;-76
2023/07/30 13:12:33;;;;;;;1.85;1.30;;;;;;;;;;4928387;28;20051;-77
2023/07/30 13:15:00;;;;;;;1.65;1.55;;;;;;;;;;4927776;28;20383;-77
2023/07/30 13:17:25;;;;;;;2.78;1.80;;;;;;;;;;4926989;28;20522;-76
2023/07/30 13:19:50;;;;;;;1.63;1.48;;;;;;;;;;4929001;28;20040;-77
2023/07/30 13:22:16;;;;;;;1.50;1.40;;;;;;;;;;4928166;28;20051;-77
2023/07/30 13:24:41;;;;;;;1.80;1.70;;;;;;;;;;4927958;28;21342;-79
2023/07/30 13:27:06;;;;;;;4.45;1.50;;;;;;;;;;4929781;28;20016;-77
2023/07/30 13:29:31;;;;;;;1.52;1.40;;;;;;;;;;4928151;28;20042;-77
2023/07/30 13:31:57;;;;;;;1.60;1.30;;;;;;;;;;4927657;28;20154;-77
2023/07/30 13:34:22;;;;;;;4.38;1.48;;;;;;;;;;4926087;28;20075;-77
2023/07/30 13:36:48;;;;;;;1.23;1.13;;;;;;;;;;4926742;28;20043;-77
2023/07/30 13:39:13;;;;;;;2.20;1.30;;;;;;;;;;4927316;28;20027;-77
2023/07/30 13:41:38;;;;;;;1.95;1.50;;;;;;;;;;4927633;28;20345;-77
2023/07/30 13:44:03;;;;;;;1.85;1.70;;;;;;;;;;4925970;28;20032;-77
2023/07/30 13:46:29;;;;;;;1.40;1.30;;;;;;;;;;4928127;28;20048;-77
2023/07/30 13:48:54;;;;;;;2.80;1.48;;;;;;;;;;4927177;28;20122;-77
2023/07/30 13:51:19;;;;;;;1.58;1.40;;;;;;;;;;4927038;28;20093;-77
2023/07/30 13:53:45;;;;;;;2.42;1.48;;;;;;;;;;4928904;28;20429;-77
2023/07/30 13:56:10;;;;;;;1.60;1.50;;;;;;;;;;4929831;28;20032;-77
2023/07/30 13:58:35;;;;;;;3.15;1.40;;;;;;;;;;4932934;28;20032;-78
2023/07/30 14:01:00;;;;;;;1.30;1.30;;;;;;;;;;4932745;28;20122;-77
2023/07/30 14:03:26;;;;;;;4.05;1.45;;;;;;;;;;4932452;28;20051;-77
2023/07/30 14:05:51;;;;;;;1.45;1.35;;;;;;;;;;4933776;28;20107;-78
2023/07/30 14:08:16;;;;;;;1.60;1.38;;;;;;;;;;4932454;28;20130;-77
2023/07/30 14:10:42;;;;;;;2.03;1.67;;;;;;;;;;4931145;28;20121;-77
2023/07/30 14:13:07;;;;;;;2.67;1.63;;;;;;;;;;4930854;28;20040;-77
2023/07/30 14:15:32;;;;;;;3.67;1.48;;;;;;;;;;4932434;28;20052;-78
2023/07/30 14:17:58;;;;;;;2.70;1.65;;;;;;;;;;4948648;28;20034;-77
2023/07/30 14:20:23;;;;;;;1.50;1.40;;;;;;;;;;4929584;28;20044;-77
2023/07/30 14:22:49;;;;;;;1.63;1.50;;;;;;;;;;4946149;28;20063;-77
2023/07/30 14:25:14;;;;;;;1.40;1.30;;;;;;;;;;4945500;28;20042;-78
2023/07/30 14:27:40;;;;;;;1.67;1.58;;;;;;;;;;4930518;28;20512;-78
2023/07/30 14:30:06;;;;;;;1.70;1.60;;;;;;;;;;4931867;28;20090;-78
2023/07/30 14:32:31;;;;;;;3.13;1.65;;;;;;;;;;4927135;28;20396;-78
2023/07/30 14:34:57;;;;;;;1.58;1.48;;;;;;;;;;4927968;28;20769;-78
2023/07/30 14:37:22;;;;;;;1.70;1.60;;;;;;;;;;4934366;28;20041;-78